sensor_id;sensor_type;location;lat;lon;timestamp;P1;durP1;ratioP1;P2;durP2;ratioP2
62256;SDS011;48240;52.962;5.790;2023-07-31T03:54:45;0.70;;;0.50;;
62256;SDS011;48240;52.962;5.790;2023-07-31T03:57:11;1.70;;;0.60;;
62256;SDS011;48240;52.962;5.790;2023-07-31T03:59:38;1.55;;;0.65;;
62256;SDS011;48240;52.962;5.790;2023-07-31T04:02:04;2.20;;;0.70;;
62256;SDS011;48240;52.962;5.790;2023-07-31T04:04:30;1.00;;;0.55;;
62256;SDS011;48240;52.962;5.790;2023-07-31T04:06:56;1.58;;;0.60;;
62256;SDS011;48240;52.962;5.790;2023-07-31T04:09:22;1.15;;;0.60;;
62256;SDS011;48240;52.962;5.790;2023-07-31T04:11:48;1.67;;;0.80;;
62256;SDS011;48240;52.962;5.790;2023-07-31T04:14:14;1.92;;;0.60;;
62256;SDS011;48240;52.962;5.790;2023-07-31T04:16:40;2.17;;;0.90;;
62256;SDS011;48240;52.962;5.790;2023-07-31T04:19:06;2.00;;;0.90;;
62256;SDS011;48240;52.962;5.790;2023-07-31T04:21:32;1.92;;;0.80;;
62256;SDS011;48240;52.962;5.790;2023-07-31T04:23:59;0.90;;;0.57;;
62256;SDS011;48240;52.962;5.790;2023-07-31T04:26:25;1.60;;;0.73;;
62256;SDS011;48240;52.962;5.790;2023-07-31T04:28:51;1.77;;;0.80;;
62256;SDS011;48240;52.962;5.790;2023-07-31T04:31:17;3.40;;;0.70;;
62256;SDS011;48240;52.962;5.790;2023-07-31T04:33:43;3.42;;;0.80;;
62256;SDS011;48240;52.962;5.790;2023-07-31T04:36:09;1.92;;;0.80;;
62256;SDS011;48240;52.962;5.790;2023-07-31T04:38:35;1.60;;;0.93;;
62256;SDS011;48240;52.962;5.790;2023-07-31T04:41:01;2.58;;;1.10;;
62256;SDS011;48240;52.962;5.790;2023-07-31T04:43:27;1.45;;;0.70;;
62256;SDS011;48240;52.962;5.790;2023-07-31T04:45:53;2.22;;;1.00;;
62256;SDS011;48240;52.962;5.790;2023-07-31T04:48:19;1.85;;;0.98;;
62256;SDS011;48240;52.962;5.790;2023-07-31T04:50:45;4.78;;;1.48;;
62256;SDS011;48240;52.962;5.790;2023-07-31T04:53:11;2.88;;;1.20;;
62256;SDS011;48240;52.962;5.790;2023-07-31T04:55:37;4.05;;;1.30;;
62256;SDS011;48240;52.962;5.790;2023-07-31T04:58:04;3.80;;;1.50;;
62256;SDS011;48240;52.962;5.790;2023-07-31T05:00:30;2.10;;;1.23;;
62256;SDS011;48240;52.962;5.790;2023-07-31T05:02:56;5.05;;;1.75;;
62256;SDS011;48240;52.962;5.790;2023-07-31T05:05:22;15.40;;;4.50;;
62256;SDS011;48240;52.962;5.790;2023-07-31T05:07:48;17.10;;;4.70;;
62256;SDS011;48240;52.962;5.790;2023-07-31T05:10:14;16.38;;;4.43;;
62256;SDS011;48240;52.962;5.790;2023-07-31T05:12:40;22.15;;;4.95;;
62256;SDS011;48240;52.962;5.790;2023-07-31T05:15:06;15.77;;;4.88;;
62256;SDS011;48240;52.962;5.790;2023-07-31T05:17:32;18.20;;;5.10;;
62256;SDS011;48240;52.962;5.790;2023-07-31T05:19:59;11.32;;;3.97;;
62256;SDS011;48240;52.962;5.790;2023-07-31T05:22:25;13.73;;;4.63;;
62256;SDS011;48240;52.962;5.790;2023-07-31T05:24:51;18.35;;;5.30;;
62256;SDS011;48240;52.962;5.790;2023-07-31T05:27:19;15.75;;;4.32;;
62256;SDS011;48240;52.962;5.790;2023-07-31T05:29:45;19.52;;;5.13;;
62256;SDS011;48240;52.962;5.790;2023-07-31T05:32:11;20.17;;;4.15;;
62256;SDS011;48240;52.962;5.790;2023-07-31T05:34:37;14.88;;;4.65;;
62256;SDS011;48240;52.962;5.790;2023-07-31T05:37:04;19.67;;;4.95;;
62256;SDS011;48240;52.962;5.790;2023-07-31T05:39:31;17.02;;;4.72;;
62256;SDS011;48240;52.962;5.790;2023-07-31T05:41:57;18.00;;;6.00;;
62256;SDS011;48240;52.962;5.790;2023-07-31T05:44:23;21.17;;;6.30;;
62256;SDS011;48240;52.962;5.790;2023-07-31T05:46:49;17.52;;;4.85;;
62256;SDS011;48240;52.962;5.790;2023-07-31T05:49:15;23.73;;;4.53;;
62256;SDS011;48240;52.962;5.790;2023-07-31T05:51:41;16.88;;;4.07;;
62256;SDS011;48240;52.962;5.790;2023-07-31T05:54:07;17.30;;;4.32;;
62256;SDS011;48240;52.962;5.790;2023-07-31T05:56:33;19.55;;;4.18;;
62256;SDS011;48240;52.962;5.790;2023-07-31T05:58:59;13.82;;;4.03;;
62256;SDS011;48240;52.962;5.790;2023-07-31T06:01:25;14.20;;;3.88;;
62256;SDS011;48240;52.962;5.790;2023-07-31T06:03:51;21.33;;;4.20;;
62256;SDS011;48240;52.962;5.790;2023-07-31T06:06:17;12.25;;;3.80;;
62256;SDS011;48240;52.962;5.790;2023-07-31T06:08:44;13.98;;;4.13;;
62256;SDS011;48240;52.962;5.790;2023-07-31T06:11:10;14.27;;;3.97;;
62256;SDS011;48240;52.962;5.790;2023-07-31T06:13:36;14.05;;;3.63;;
62256;SDS011;48240;52.962;5.790;2023-07-31T06:16:02;15.50;;;4.10;;
62256;SDS011;48240;52.962;5.790;2023-07-31T06:18:34;17.50;;;4.53;;
62256;SDS011;48240;52.962;5.790;2023-07-31T06:21:00;13.93;;;3.63;;
62256;SDS011;48240;52.962;5.790;2023-07-31T06:23:26;12.70;;;3.55;;
62256;SDS011;48240;52.962;5.790;2023-07-31T06:25:52;14.73;;;3.05;;
62256;SDS011;48240;52.962;5.790;2023-07-31T06:28:18;10.90;;;3.13;;
62256;SDS011;48240;52.962;5.790;2023-07-31T06:30:44;12.85;;;3.60;;
62256;SDS011;48240;52.962;5.790;2023-07-31T06:33:10;9.27;;;2.58;;
62256;SDS011;48240;52.962;5.790;2023-07-31T06:35:36;11.65;;;2.90;;
62256;SDS011;48240;52.962;5.790;2023-07-31T06:38:02;12.55;;;3.17;;
62256;SDS011;48240;52.962;5.790;2023-07-31T06:40:29;8.68;;;2.88;;
62256;SDS011;48240;52.962;5.790;2023-07-31T06:42:55;9.60;;;2.95;;
62256;SDS011;48240;52.962;5.790;2023-07-31T06:45:21;10.32;;;3.00;;
62256;SDS011;48240;52.962;5.790;2023-07-31T06:47:47;6.60;;;2.40;;
62256;SDS011;48240;52.962;5.790;2023-07-31T06:50:13;6.88;;;2.38;;
62256;SDS011;48240;52.962;5.790;2023-07-31T06:52:39;4.35;;;1.80;;
62256;SDS011;48240;52.962;5.790;2023-07-31T06:55:18;4.53;;;1.70;;
62256;SDS011;48240;52.962;5.790;2023-07-31T06:57:45;3.50;;;1.48;;
62256;SDS011;48240;52.962;5.790;2023-07-31T07:00:12;5.03;;;1.20;;
62256;SDS011;48240;52.962;5.790;2023-07-31T07:02:38;3.33;;;1.08;;
62256;SDS011;48240;52.962;5.790;2023-07-31T07:05:04;1.83;;;0.93;;
62256;SDS011;48240;52.962;5.790;2023-07-31T07:07:30;2.25;;;0.70;;
62256;SDS011;48240;52.962;5.790;2023-07-31T07:09:57;1.27;;;0.65;;
62256;SDS011;48240;52.962;5.790;2023-07-31T07:12:25;1.08;;;0.50;;
62256;SDS011;48240;52.962;5.790;2023-07-31T07:14:51;2.50;;;0.38;;
62256;SDS011;48240;52.962;5.790;2023-07-31T07:17:20;2.47;;;0.45;;
62256;SDS011;48240;52.962;5.790;2023-07-31T07:19:47;1.20;;;0.40;;
62256;SDS011;48240;52.962;5.790;2023-07-31T07:22:14;2.95;;;0.43;;
62256;SDS011;48240;52.962;5.790;2023-07-31T07:24:40;0.45;;;0.20;;
62256;SDS011;48240;52.962;5.790;2023-07-31T07:27:06;1.60;;;0.35;;
62256;SDS011;48240;52.962;5.790;2023-07-31T07:29:33;0.80;;;0.40;;
62256;SDS011;48240;52.962;5.790;2023-07-31T07:31:59;0.65;;;0.30;;
62256;SDS011;48240;52.962;5.790;2023-07-31T07:34:26;2.17;;;0.30;;
62256;SDS011;48240;52.962;5.790;2023-07-31T07:36:52;0.20;;;0.20;;
62256;SDS011;48240;52.962;5.790;2023-07-31T07:39:18;3.03;;;0.40;;
62256;SDS011;48240;52.962;5.790;2023-07-31T07:41:45;0.52;;;0.30;;
62256;SDS011;48240;52.962;5.790;2023-07-31T07:44:11;1.05;;;0.43;;
62256;SDS011;48240;52.962;5.790;2023-07-31T07:46:38;0.20;;;0.20;;
62256;SDS011;48240;52.962;5.790;2023-07-31T07:49:04;0.90;;;0.30;;
62256;SDS011;48240;52.962;5.790;2023-07-31T07:51:30;0.75;;;0.20;;
62256;SDS011;48240;52.962;5.790;2023-07-31T07:54:00;0.57;;;0.30;;
62256;SDS011;48240;52.962;5.790;2023-07-31T07:56:26;0.52;;;0.20;;
62256;SDS011;48240;52.962;5.790;2023-07-31T07:58:53;0.20;;;0.20;;
62256;SDS011;48240;52.962;5.790;2023-07-31T08:01:19;0.68;;;0.30;;
62256;SDS011;48240;52.962;5.790;2023-07-31T08:03:46;0.47;;;0.20;;
62256;SDS011;48240;52.962;5.790;2023-07-31T08:06:12;0.98;;;0.30;;
62256;SDS011;48240;52.962;5.790;2023-07-31T08:08:39;0.40;;;0.30;;
62256;SDS011;48240;52.962;5.790;2023-07-31T08:11:05;0.40;;;0.20;;
62256;SDS011;48240;52.962;5.790;2023-07-31T08:13:31;0.35;;;0.20;;
62256;SDS011;48240;52.962;5.790;2023-07-31T08:15:57;0.20;;;0.13;;
62256;SDS011;48240;52.962;5.790;2023-07-31T08:18:23;1.73;;;0.20;;
62256;SDS011;48240;52.962;5.790;2023-07-31T08:20:49;0.73;;;0.28;;
62256;SDS011;48240;52.962;5.790;2023-07-31T08:23:15;0.43;;;0.30;;
62256;SDS011;48240;52.962;5.790;2023-07-31T08:25:42;0.70;;;0.40;;
62256;SDS011;48240;52.962;5.790;2023-07-31T08:28:08;0.43;;;0.30;;
62256;SDS011;48240;52.962;5.790;2023-07-31T08:30:34;0.50;;;0.20;;
62256;SDS011;48240;52.962;5.790;2023-07-31T08:33:00;0.40;;;0.28;;
62256;SDS011;48240;52.962;5.790;2023-07-31T08:35:26;0.43;;;0.30;;
62256;SDS011;48240;52.962;5.790;2023-07-31T08:37:55;0.55;;;0.20;;
62256;SDS011;48240;52.962;5.790;2023-07-31T08:40:21;1.80;;;0.40;;
62256;SDS011;48240;52.962;5.790;2023-07-31T08:42:48;1.00;;;0.30;;
62256;SDS011;48240;52.962;5.790;2023-07-31T08:45:15;0.77;;;0.30;;
62256;SDS011;48240;52.962;5.790;2023-07-31T08:47:44;0.40;;;0.30;;
62256;SDS011;48240;52.962;5.790;2023-07-31T08:50:10;0.85;;;0.30;;
62256;SDS011;48240;52.962;5.790;2023-07-31T08:52:37;0.73;;;0.30;;
62256;SDS011;48240;52.962;5.790;2023-07-31T08:55:04;1.70;;;0.40;;
62256;SDS011;48240;52.962;5.790;2023-07-31T08:57:30;1.00;;;0.30;;
62256;SDS011;48240;52.962;5.790;2023-07-31T08:59:57;0.95;;;0.20;;
62256;SDS011;48240;52.962;5.790;2023-07-31T09:02:24;1.40;;;0.55;;
62256;SDS011;48240;52.962;5.790;2023-07-31T09:04:51;0.75;;;0.30;;
62256;SDS011;48240;52.962;5.790;2023-07-31T09:07:18;0.65;;;0.40;;
62256;SDS011;48240;52.962;5.790;2023-07-31T09:09:45;1.25;;;0.30;;
62256;SDS011;48240;52.962;5.790;2023-07-31T09:12:11;0.80;;;0.30;;
62256;SDS011;48240;52.962;5.790;2023-07-31T09:14:37;0.40;;;0.20;;
62256;SDS011;48240;52.962;5.790;2023-07-31T09:17:04;1.10;;;0.30;;
62256;SDS011;48240;52.962;5.790;2023-07-31T09:19:34;0.68;;;0.20;;
62256;SDS011;48240;52.962;5.790;2023-07-31T09:22:04;0.90;;;0.20;;
62256;SDS011;48240;52.962;5.790;2023-07-31T09:24:31;3.55;;;0.20;;
62256;SDS011;48240;52.962;5.790;2023-07-31T09:26:58;0.88;;;0.28;;
62256;SDS011;48240;52.962;5.790;2023-07-31T09:29:25;1.13;;;0.30;;
62256;SDS011;48240;52.962;5.790;2023-07-31T09:31:52;1.23;;;0.20;;
62256;SDS011;48240;52.962;5.790;2023-07-31T09:34:18;0.40;;;0.20;;
62256;SDS011;48240;52.962;5.790;2023-07-31T09:36:45;0.38;;;0.20;;
62256;SDS011;48240;52.962;5.790;2023-07-31T09:39:12;1.27;;;0.30;;
62256;SDS011;48240;52.962;5.790;2023-07-31T09:41:42;0.68;;;0.20;;
62256;SDS011;48240;52.962;5.790;2023-07-31T09:46:35;1.65;;;0.20;;
62256;SDS011;48240;52.962;5.790;2023-07-31T09:49:09;1.55;;;0.22;;
62256;SDS011;48240;52.962;5.790;2023-07-31T09:51:36;1.33;;;0.35;;
62256;SDS011;48240;52.962;5.790;2023-07-31T09:56:38;4.07;;;0.40;;
62256;SDS011;48240;52.962;5.790;2023-07-31T09:59:06;2.25;;;0.80;;
62256;SDS011;48240;52.962;5.790;2023-07-31T10:01:33;1.00;;;0.10;;
62256;SDS011;48240;52.962;5.790;2023-07-31T10:03:59;0.30;;;0.10;;
62256;SDS011;48240;52.962;5.790;2023-07-31T10:06:27;0.22;;;0.20;;
62256;SDS011;48240;52.962;5.790;2023-07-31T10:08:53;0.57;;;0.20;;
62256;SDS011;48240;52.962;5.790;2023-07-31T10:11:20;0.50;;;0.20;;
62256;SDS011;48240;52.962;5.790;2023-07-31T10:13:47;0.55;;;0.20;;
62256;SDS011;48240;52.962;5.790;2023-07-31T10:16:13;1.00;;;0.25;;
62256;SDS011;48240;52.962;5.790;2023-07-31T10:18:41;0.85;;;0.25;;
62256;SDS011;48240;52.962;5.790;2023-07-31T10:21:08;0.45;;;0.20;;
62256;SDS011;48240;52.962;5.790;2023-07-31T10:23:35;1.55;;;0.35;;
62256;SDS011;48240;52.962;5.790;2023-07-31T10:26:01;0.60;;;0.20;;
62256;SDS011;48240;52.962;5.790;2023-07-31T10:28:28;0.85;;;0.30;;
62256;SDS011;48240;52.962;5.790;2023-07-31T10:30:55;1.00;;;0.20;;
62256;SDS011;48240;52.962;5.790;2023-07-31T10:33:21;0.73;;;0.20;;
62256;SDS011;48240;52.962;5.790;2023-07-31T10:35:47;4.32;;;0.30;;
62256;SDS011;48240;52.962;5.790;2023-07-31T10:38:14;1.00;;;0.20;;
62256;SDS011;48240;52.962;5.790;2023-07-31T10:40:40;2.92;;;0.20;;
62256;SDS011;48240;52.962;5.790;2023-07-31T10:43:06;1.00;;;0.30;;
62256;SDS011;48240;52.962;5.790;2023-07-31T10:45:37;1.13;;;0.30;;
62256;SDS011;48240;52.962;5.790;2023-07-31T10:48:04;0.63;;;0.40;;
62256;SDS011;48240;52.962;5.790;2023-07-31T10:50:31;1.50;;;0.20;;
62256;SDS011;48240;52.962;5.790;2023-07-31T10:52:58;1.13;;;0.45;;
62256;SDS011;48240;52.962;5.790;2023-07-31T10:57:52;1.65;;;0.20;;
62256;SDS011;48240;52.962;5.790;2023-07-31T11:00:22;1.00;;;0.25;;
62256;SDS011;48240;52.962;5.790;2023-07-31T11:08:20;1.48;;;0.30;;
62256;SDS011;48240;52.962;5.790;2023-07-31T11:10:50;0.50;;;0.30;;
62256;SDS011;48240;52.962;5.790;2023-07-31T11:13:17;1.80;;;0.30;;
62256;SDS011;48240;52.962;5.790;2023-07-31T11:15:43;1.58;;;0.40;;
62256;SDS011;48240;52.962;5.790;2023-07-31T11:18:09;1.35;;;0.30;;
62256;SDS011;48240;52.962;5.790;2023-07-31T11:20:36;0.65;;;0.32;;
62256;SDS011;48240;52.962;5.790;2023-07-31T11:23:03;0.43;;;0.30;;
62256;SDS011;48240;52.962;5.790;2023-07-31T11:25:30;0.80;;;0.57;;
62256;SDS011;48240;52.962;5.790;2023-07-31T11:27:57;0.93;;;0.30;;
62256;SDS011;48240;52.962;5.790;2023-07-31T11:30:23;2.55;;;0.40;;
62256;SDS011;48240;52.962;5.790;2023-07-31T11:32:49;1.77;;;0.40;;
62256;SDS011;48240;52.962;5.790;2023-07-31T11:35:16;0.65;;;0.30;;
62256;SDS011;48240;52.962;5.790;2023-07-31T11:37:43;1.20;;;0.28;;
62256;SDS011;48240;52.962;5.790;2023-07-31T11:40:10;3.00;;;0.60;;
62256;SDS011;48240;52.962;5.790;2023-07-31T11:42:37;4.68;;;0.63;;
62256;SDS011;48240;52.962;5.790;2023-07-31T11:45:09;4.15;;;0.73;;
62256;SDS011;48240;52.962;5.790;2023-07-31T11:47:36;2.25;;;0.60;;
62256;SDS011;48240;52.962;5.790;2023-07-31T11:50:03;1.75;;;0.60;;
62256;SDS011;48240;52.962;5.790;2023-07-31T11:52:30;4.78;;;0.80;;
62256;SDS011;48240;52.962;5.790;2023-07-31T11:54:57;2.83;;;0.60;;
62256;SDS011;48240;52.962;5.790;2023-07-31T11:57:24;2.35;;;0.55;;
62256;SDS011;48240;52.962;5.790;2023-07-31T11:59:50;1.40;;;0.63;;
62256;SDS011;48240;52.962;5.790;2023-07-31T12:02:17;4.65;;;0.77;;
62256;SDS011;48240;52.962;5.790;2023-07-31T12:04:45;2.83;;;0.60;;
62256;SDS011;48240;52.962;5.790;2023-07-31T12:07:11;4.70;;;0.80;;
62256;SDS011;48240;52.962;5.790;2023-07-31T12:09:38;3.10;;;1.05;;
62256;SDS011;48240;52.962;5.790;2023-07-31T12:12:07;3.25;;;0.88;;
62256;SDS011;48240;52.962;5.790;2023-07-31T12:14:34;5.18;;;1.10;;
62256;SDS011;48240;52.962;5.790;2023-07-31T12:17:03;5.05;;;1.30;;
62256;SDS011;48240;52.962;5.790;2023-07-31T12:19:30;4.30;;;1.00;;
62256;SDS011;48240;52.962;5.790;2023-07-31T12:21:56;4.07;;;1.00;;
62256;SDS011;48240;52.962;5.790;2023-07-31T12:24:22;6.45;;;1.10;;
62256;SDS011;48240;52.962;5.790;2023-07-31T12:26:48;4.25;;;1.30;;
62256;SDS011;48240;52.962;5.790;2023-07-31T12:29:15;3.53;;;1.50;;
62256;SDS011;48240;52.962;5.790;2023-07-31T12:31:41;4.03;;;1.25;;
62256;SDS011;48240;52.962;5.790;2023-07-31T12:34:15;5.18;;;1.25;;
62256;SDS011;48240;52.962;5.790;2023-07-31T12:36:42;8.02;;;1.42;;
62256;SDS011;48240;52.962;5.790;2023-07-31T12:39:08;7.18;;;1.35;;
62256;SDS011;48240;52.962;5.790;2023-07-31T12:41:34;5.35;;;1.40;;
62256;SDS011;48240;52.962;5.790;2023-07-31T12:44:00;4.05;;;1.25;;
62256;SDS011;48240;52.962;5.790;2023-07-31T12:46:26;3.65;;;1.10;;
62256;SDS011;48240;52.962;5.790;2023-07-31T12:48:52;2.92;;;1.10;;
62256;SDS011;48240;52.962;5.790;2023-07-31T12:51:18;5.93;;;1.25;;
62256;SDS011;48240;52.962;5.790;2023-07-31T12:53:44;4.47;;;1.20;;
62256;SDS011;48240;52.962;5.790;2023-07-31T12:56:10;4.82;;;1.38;;
62256;SDS011;48240;52.962;5.790;2023-07-31T12:58:36;3.25;;;0.85;;
62256;SDS011;48240;52.962;5.790;2023-07-31T13:01:02;6.28;;;1.33;;
62256;SDS011;48240;52.962;5.790;2023-07-31T13:03:28;4.35;;;1.40;;
62256;SDS011;48240;52.962;5.790;2023-07-31T13:05:54;4.55;;;1.30;;
62256;SDS011;48240;52.962;5.790;2023-07-31T13:08:21;3.65;;;1.40;;
62256;SDS011;48240;52.962;5.790;2023-07-31T13:10:47;7.72;;;1.77;;
62256;SDS011;48240;52.962;5.790;2023-07-31T13:13:13;5.30;;;1.50;;
62256;SDS011;48240;52.962;5.790;2023-07-31T13:15:39;6.47;;;1.70;;
62256;SDS011;48240;52.962;5.790;2023-07-31T13:18:05;6.47;;;1.50;;
62256;SDS011;48240;52.962;5.790;2023-07-31T13:20:31;5.32;;;1.42;;
62256;SDS011;48240;52.962;5.790;2023-07-31T13:22:57;5.60;;;1.40;;
62256;SDS011;48240;52.962;5.790;2023-07-31T13:25:23;4.88;;;1.80;;
62256;SDS011;48240;52.962;5.790;2023-07-31T13:27:49;6.10;;;1.90;;
62256;SDS011;48240;52.962;5.790;2023-07-31T13:30:15;5.05;;;1.65;;
62256;SDS011;48240;52.962;5.790;2023-07-31T13:32:41;5.85;;;1.50;;
62256;SDS011;48240;52.962;5.790;2023-07-31T13:35:08;8.20;;;1.75;;
62256;SDS011;48240;52.962;5.790;2023-07-31T13:37:36;6.40;;;1.40;;
62256;SDS011;48240;52.962;5.790;2023-07-31T13:40:02;7.32;;;1.40;;
62256;SDS011;48240;52.962;5.790;2023-07-31T13:42:30;5.18;;;1.63;;
62256;SDS011;48240;52.962;5.790;2023-07-31T13:44:56;7.00;;;2.15;;
62256;SDS011;48240;52.962;5.790;2023-07-31T13:47:22;7.60;;;1.65;;
62256;SDS011;48240;52.962;5.790;2023-07-31T13:49:48;7.80;;;1.75;;
62256;SDS011;48240;52.962;5.790;2023-07-31T13:52:14;5.28;;;1.58;;
62256;SDS011;48240;52.962;5.790;2023-07-31T13:54:40;9.27;;;1.88;;
62256;SDS011;48240;52.962;5.790;2023-07-31T13:57:08;6.22;;;1.70;;
62256;SDS011;48240;52.962;5.790;2023-07-31T13:59:34;9.35;;;1.40;;
62256;SDS011;48240;52.962;5.790;2023-07-31T14:02:01;8.07;;;1.95;;
62256;SDS011;48240;52.962;5.790;2023-07-31T14:04:27;5.55;;;1.75;;
62256;SDS011;48240;52.962;5.790;2023-07-31T14:06:53;9.48;;;1.80;;
62256;SDS011;48240;52.962;5.790;2023-07-31T14:09:19;6.25;;;1.90;;
62256;SDS011;48240;52.962;5.790;2023-07-31T14:11:45;5.80;;;1.98;;
62256;SDS011;48240;52.962;5.790;2023-07-31T14:14:11;5.18;;;1.85;;
62256;SDS011;48240;52.962;5.790;2023-07-31T14:16:38;6.30;;;2.17;;
62256;SDS011;48240;52.962;5.790;2023-07-31T14:19:05;4.90;;;1.90;;
62256;SDS011;48240;52.962;5.790;2023-07-31T14:21:33;5.78;;;2.10;;
62256;SDS011;48240;52.962;5.790;2023-07-31T14:23:59;5.28;;;1.63;;
62256;SDS011;48240;52.962;5.790;2023-07-31T14:26:25;7.00;;;1.92;;
62256;SDS011;48240;52.962;5.790;2023-07-31T14:28:51;6.43;;;2.03;;
62256;SDS011;48240;52.962;5.790;2023-07-31T14:31:17;4.65;;;1.75;;
62256;SDS011;48240;52.962;5.790;2023-07-31T14:33:43;6.38;;;1.80;;
62256;SDS011;48240;52.962;5.790;2023-07-31T14:36:09;4.78;;;1.80;;
62256;SDS011;48240;52.962;5.790;2023-07-31T14:38:35;4.88;;;1.73;;
62256;SDS011;48240;52.962;5.790;2023-07-31T14:41:02;6.78;;;1.77;;
62256;SDS011;48240;52.962;5.790;2023-07-31T14:43:28;8.23;;;1.98;;
62256;SDS011;48240;52.962;5.790;2023-07-31T14:45:54;3.42;;;1.30;;
62256;SDS011;48240;52.962;5.790;2023-07-31T14:48:24;4.78;;;1.38;;
62256;SDS011;48240;52.962;5.790;2023-07-31T14:50:50;4.38;;;1.60;;
62256;SDS011;48240;52.962;5.790;2023-07-31T14:53:16;7.10;;;2.00;;
62256;SDS011;48240;52.962;5.790;2023-07-31T14:55:42;5.30;;;1.50;;
62256;SDS011;48240;52.962;5.790;2023-07-31T14:58:08;5.43;;;1.42;;
62256;SDS011;48240;52.962;5.790;2023-07-31T15:00:36;10.23;;;2.20;;
62256;SDS011;48240;52.962;5.790;2023-07-31T15:03:02;8.00;;;1.70;;
62256;SDS011;48240;52.962;5.790;2023-07-31T15:05:28;6.80;;;1.70;;
62256;SDS011;48240;52.962;5.790;2023-07-31T15:07:54;7.70;;;2.00;;
62256;SDS011;48240;52.962;5.790;2023-07-31T15:10:20;13.73;;;3.75;;
62256;SDS011;48240;52.962;5.790;2023-07-31T15:12:46;18.27;;;4.10;;
62256;SDS011;48240;52.962;5.790;2023-07-31T15:15:13;21.35;;;5.15;;
62256;SDS011;48240;52.962;5.790;2023-07-31T15:17:39;23.83;;;5.57;;
62256;SDS011;48240;52.962;5.790;2023-07-31T15:20:05;21.02;;;5.90;;
62256;SDS011;48240;52.962;5.790;2023-07-31T15:22:32;19.85;;;6.60;;
62256;SDS011;48240;52.962;5.790;2023-07-31T15:24:58;25.17;;;6.80;;
62256;SDS011;48240;52.962;5.790;2023-07-31T15:27:24;24.10;;;6.97;;
62256;SDS011;48240;52.962;5.790;2023-07-31T15:29:50;16.55;;;5.72;;
62256;SDS011;48240;52.962;5.790;2023-07-31T15:32:16;26.67;;;7.38;;
62256;SDS011;48240;52.962;5.790;2023-07-31T15:34:44;29.92;;;8.20;;
62256;SDS011;48240;52.962;5.790;2023-07-31T15:37:10;24.23;;;6.15;;
62256;SDS011;48240;52.962;5.790;2023-07-31T15:39:36;28.15;;;7.82;;
62256;SDS011;48240;52.962;5.790;2023-07-31T15:42:02;19.02;;;5.63;;
62256;SDS011;48240;52.962;5.790;2023-07-31T15:44:28;19.65;;;5.75;;
62256;SDS011;48240;52.962;5.790;2023-07-31T15:46:54;15.23;;;4.13;;
62256;SDS011;48240;52.962;5.790;2023-07-31T15:49:20;14.68;;;5.30;;
62256;SDS011;48240;52.962;5.790;2023-07-31T15:51:46;16.85;;;4.97;;
62256;SDS011;48240;52.962;5.790;2023-07-31T15:54:12;21.13;;;6.30;;
62256;SDS011;48240;52.962;5.790;2023-07-31T15:56:38;15.35;;;4.20;;
62256;SDS011;48240;52.962;5.790;2023-07-31T15:59:05;13.20;;;3.25;;
62256;SDS011;48240;52.962;5.790;2023-07-31T16:01:31;11.48;;;3.60;;
62256;SDS011;48240;52.962;5.790;2023-07-31T16:03:57;12.38;;;3.10;;
62256;SDS011;48240;52.962;5.790;2023-07-31T16:06:23;11.18;;;2.25;;
62256;SDS011;48240;52.962;5.790;2023-07-31T16:08:49;7.38;;;2.05;;
62256;SDS011;48240;52.962;5.790;2023-07-31T16:11:15;8.57;;;2.08;;
62256;SDS011;48240;52.962;5.790;2023-07-31T16:13:41;9.65;;;2.45;;
62256;SDS011;48240;52.962;5.790;2023-07-31T16:16:07;10.20;;;2.60;;
62256;SDS011;48240;52.962;5.790;2023-07-31T16:18:33;5.15;;;1.92;;
62256;SDS011;48240;52.962;5.790;2023-07-31T16:21:00;4.75;;;1.75;;
62256;SDS011;48240;52.962;5.790;2023-07-31T16:23:26;9.23;;;2.13;;
62256;SDS011;48240;52.962;5.790;2023-07-31T16:25:52;7.88;;;1.90;;
62256;SDS011;48240;52.962;5.790;2023-07-31T16:28:18;6.60;;;2.17;;
62256;SDS011;48240;52.962;5.790;2023-07-31T16:30:45;8.85;;;2.00;;
62256;SDS011;48240;52.962;5.790;2023-07-31T16:33:11;5.13;;;1.77;;
62256;SDS011;48240;52.962;5.790;2023-07-31T16:35:37;7.22;;;1.90;;
62256;SDS011;48240;52.962;5.790;2023-07-31T16:38:03;4.25;;;1.90;;
62256;SDS011;48240;52.962;5.790;2023-07-31T16:40:29;6.00;;;1.77;;
62256;SDS011;48240;52.962;5.790;2023-07-31T16:42:56;6.20;;;1.80;;
62256;SDS011;48240;52.962;5.790;2023-07-31T16:45:22;5.38;;;1.67;;
62256;SDS011;48240;52.962;5.790;2023-07-31T16:47:48;6.43;;;1.52;;
62256;SDS011;48240;52.962;5.790;2023-07-31T16:50:14;7.63;;;1.60;;
62256;SDS011;48240;52.962;5.790;2023-07-31T16:52:41;6.03;;;1.70;;
62256;SDS011;48240;52.962;5.790;2023-07-31T16:55:07;5.72;;;1.50;;
62256;SDS011;48240;52.962;5.790;2023-07-31T16:57:33;7.63;;;2.30;;
62256;SDS011;48240;52.962;5.790;2023-07-31T16:59:59;8.20;;;1.98;;
62256;SDS011;48240;52.962;5.790;2023-07-31T17:02:25;4.97;;;1.88;;
62256;SDS011;48240;52.962;5.790;2023-07-31T17:04:51;5.70;;;1.85;;
62256;SDS011;48240;52.962;5.790;2023-07-31T17:07:17;7.63;;;1.65;;
62256;SDS011;48240;52.962;5.790;2023-07-31T17:09:46;6.32;;;1.80;;
62256;SDS011;48240;52.962;5.790;2023-07-31T17:12:12;6.88;;;2.22;;
62256;SDS011;48240;52.962;5.790;2023-07-31T17:14:38;10.85;;;1.95;;
62256;SDS011;48240;52.962;5.790;2023-07-31T17:17:04;5.57;;;1.85;;
62256;SDS011;48240;52.962;5.790;2023-07-31T17:19:30;6.72;;;1.98;;
62256;SDS011;48240;52.962;5.790;2023-07-31T17:21:56;6.65;;;2.10;;
62256;SDS011;48240;52.962;5.790;2023-07-31T17:24:22;6.47;;;1.73;;
62256;SDS011;48240;52.962;5.790;2023-07-31T17:26:48;4.10;;;1.83;;
62256;SDS011;48240;52.962;5.790;2023-07-31T17:29:15;7.38;;;1.80;;
62256;SDS011;48240;52.962;5.790;2023-07-31T17:31:42;9.10;;;1.98;;
62256;SDS011;48240;52.962;5.790;2023-07-31T17:34:08;6.68;;;1.92;;
62256;SDS011;48240;52.962;5.790;2023-07-31T17:36:34;5.50;;;1.70;;
62256;SDS011;48240;52.962;5.790;2023-07-31T17:39:00;5.57;;;1.65;;
62256;SDS011;48240;52.962;5.790;2023-07-31T17:41:28;5.95;;;1.70;;
62256;SDS011;48240;52.962;5.790;2023-07-31T17:43:56;6.75;;;1.63;;
62256;SDS011;48240;52.962;5.790;2023-07-31T17:46:22;6.30;;;1.80;;
62256;SDS011;48240;52.962;5.790;2023-07-31T17:48:48;9.45;;;1.98;;
62256;SDS011;48240;52.962;5.790;2023-07-31T17:51:14;8.52;;;2.20;;
62256;SDS011;48240;52.962;5.790;2023-07-31T17:53:40;3.17;;;1.27;;
62256;SDS011;48240;52.962;5.790;2023-07-31T17:56:06;7.00;;;1.80;;
62256;SDS011;48240;52.962;5.790;2023-07-31T17:58:32;6.80;;;1.73;;
62256;SDS011;48240;52.962;5.790;2023-07-31T18:00:58;5.00;;;1.35;;
62256;SDS011;48240;52.962;5.790;2023-07-31T18:03:25;5.57;;;1.67;;
62256;SDS011;48240;52.962;5.790;2023-07-31T18:05:51;3.45;;;1.67;;
62256;SDS011;48240;52.962;5.790;2023-07-31T18:08:17;3.55;;;1.38;;
62256;SDS011;48240;52.962;5.790;2023-07-31T18:10:46;5.40;;;1.40;;
62256;SDS011;48240;52.962;5.790;2023-07-31T18:13:13;5.57;;;2.10;;
62256;SDS011;48240;52.962;5.790;2023-07-31T18:15:45;7.35;;;1.75;;
62256;SDS011;48240;52.962;5.790;2023-07-31T18:18:12;7.22;;;1.90;;
62256;SDS011;48240;52.962;5.790;2023-07-31T18:20:38;7.05;;;1.65;;
62256;SDS011;48240;52.962;5.790;2023-07-31T18:23:04;5.32;;;1.50;;
62256;SDS011;48240;52.962;5.790;2023-07-31T18:25:30;5.10;;;1.38;;
62256;SDS011;48240;52.962;5.790;2023-07-31T18:27:56;7.80;;;1.52;;
62256;SDS011;48240;52.962;5.790;2023-07-31T18:30:22;4.70;;;1.40;;
62256;SDS011;48240;52.962;5.790;2023-07-31T18:32:48;4.75;;;1.83;;
62256;SDS011;48240;52.962;5.790;2023-07-31T18:35:14;4.47;;;1.25;;
62256;SDS011;48240;52.962;5.790;2023-07-31T18:37:44;4.82;;;1.50;;
62256;SDS011;48240;52.962;5.790;2023-07-31T18:40:10;6.15;;;1.80;;
62256;SDS011;48240;52.962;5.790;2023-07-31T18:42:36;4.13;;;1.33;;
62256;SDS011;48240;52.962;5.790;2023-07-31T18:45:03;6.05;;;1.50;;
62256;SDS011;48240;52.962;5.790;2023-07-31T18:47:29;5.35;;;1.50;;